Tiempo atmosférico en la estación meteorológica de Irurtzun, Navarra (455 m.)



Fecha
DESCASC
Temp. máxima en grados centígrados (hora)
DESCASC
Temp. mínima en grados centígrados (hora)
DESCASC
Temp. media en grados centígrados
DESCASC
Racha de viento máxima en m/sg (hora)
DESCASC
Velocidad máxima media en intervalos de 10 minutos(hora)
DESCASC
Precipitaciones diarias en mm
DESCASC
Precipitaciones de 00:00 a 06:00 en mm
DESCASC
Precipitaciones de 06:00 a 12:00 en mm
DESCASC
Precipitaciones de 12:00 a 18:00 en mm
DESCASC
Precipitaciones de 18:00 a 24:00 en mm
DESCASC
21-10-2019 16.2 (15:10) 5.8 (00:00) 11 5.28 (19:50) 2.5 (20:00) 0.8 0 0 0.8 0
15-10-2019 18 (16:30) 6 (00:00) 12 6.11 (14:40) 2.78 (16:40) 0.2 0 0 0.2 0
20-10-2019 17.2 (00:10) 9.6 (00:00) 13.4 11.11 (00:40) 5.56 (02:50) 8.4 6.2 1.6 0.4 0.2
10-10-2019 21.4 (16:20) 6.2 (00:00) 13.8 7.22 (19:10) 3.33 (19:10) 0 0 0 0 0
09-10-2019 17.7 (13:40) 9.9 (00:00) 13.8 9.44 (12:20) 5 (15:30) 0 0 0 0 0
02-10-2019 16 (15:20) 12.6 (00:00) 14.3 8.89 (04:00) 4.17 (04:00) 9.6 1.2 4.8 2.8 0.8
16-10-2019 20.3 (17:30) 10.1 (00:00) 15.2 9.72 (14:40) 4.72 (14:40) 0 0 0 0 0
07-10-2019 21.1 (17:10) 9.6 (00:00) 15.4 8.06 (13:10) 3.89 (13:10) 0 0 0 0 0
04-10-2019 19.7 (16:30) 11.2 (00:00) 15.5 8.61 (17:20) 4.44 (17:20) 0 0 0 0 0
06-10-2019 18.1 (14:30) 13.1 (00:00) 15.6 10.28 (16:00) 5.83 (16:00) 0.6 0 0 0.2 0.4
19-10-2019 20.4 (16:10) 11.5 (00:00) 15.9 13.06 (16:30) 6.39 (16:40) 0.4 0 0.2 0 0.2
03-10-2019 20.7 (16:00) 11.5 (00:00) 16.1 9.44 (15:40) 4.44 (15:50) 0.4 0.2 0 0.2 0
05-10-2019 19.4 (17:20) 13.2 (08:40) 16.3 8.89 (16:30) 5.28 (16:40) 0 0 0 0 0
17-10-2019 21 (18:00) 11.6 (00:00) 16.3 8.33 (16:00) 4.72 (15:20) 1 0 1 0 0
18-10-2019 19 (14:50) 13.9 (00:00) 16.4 6.94 (23:20) 3.33 (23:20) 1.8 1.8 0 0 0
23-09-2019 23.3 (17:30) 9.9 (00:00) 16.6 7.22 (17:30) 3.89 (17:30) 0 0 0 0 0
01-10-2019 22.9 (13:40) 11.2 (00:00) 17 14.17 (20:00) 7.22 (19:00) 0 0 0 0 0
14-10-2019 22.9 (14:20) 11.3 (00:00) 17.1 15.83 (09:50) 6.11 (13:50) 6.8 0 0 3.6 3.2
25-09-2019 21 (13:50) 14.2 (00:00) 17.6 6.94 (02:50) 3.33 (15:20) 0 0 0 0 0
08-10-2019 28.9 (16:10) 6.7 (00:00) 17.8 11.11 (19:30) 5.28 (17:20) 0 0 0 0 0
11-10-2019 26.7 (17:00) 9.8 (02:30) 18.3 10 (23:59) 4.17 (12:00) 0 0 0 0 0
22-09-2019 22.9 (17:50) 14.1 (00:00) 18.5 11.39 (04:40) 6.11 (04:20) 4.8 1 3.8 0 0
27-09-2019 25.4 (15:30) 12.1 (00:00) 18.8 8.61 (21:30) 4.44 (21:20) 0 0 0 0 0
26-09-2019 28.2 (17:10) 9.7 (00:00) 19 5.56 (19:30) 3.06 (19:50) 0 0 0 0 0
24-09-2019 25.4 (15:00) 13.7 (00:00) 19.5 9.72 (21:20) 5 (21:20) 0.2 0 0 0 0.2
30-09-2019 29.1 (17:30) 10 (00:00) 19.6 3.89 (18:00) 1.94 (15:00) 0 0 0 0 0
28-09-2019 27.7 (17:20) 13.5 (00:00) 20.6 6.11 (16:00) 3.06 (16:40) 0 0 0 0 0
29-09-2019 29.5 (17:40) 14.1 (00:00) 21.8 9.72 (19:20) 5 (20:00) 0 0 0 0 0
13-10-2019 27.2 (17:30) 18.5 (00:00) 22.9 12.78 (08:50) 6.39 (08:50) 0 0 0 0 0
12-10-2019 27.3 (17:50) 19.2 (00:00) 23.3 13.61 (06:20) 6.39 (06:10) 0.4 0 0 0 0.4

Gráficas

Temp. máximas Temp. mínimas Temp. medias Precipitaciones Rachas de viento máximas Velocidades máximas media en intervalos de 10 minutos

Datos horarios

Fecha y hora oficial Temperatura (ºC) Velocidad del viento (km/h) Dirección del viento Racha (km/h) Dirección de racha Precipitación (mm) Presión (hPa) Tendencia (hPa) Humedad (%)
2019-10-21 23:00:00 7.3 2 Noroeste 6 Noroeste 0 -- -- 92
2019-10-21 22:00:00 8.7 3 Sudoeste 6 Oeste 0 -- -- 89
2019-10-21 21:00:00 10.4 4 Noroeste 16 Noroeste 0 -- -- 83
2019-10-21 20:00:00 11.7 9 Norte 19 Norte 0 -- -- 77
2019-10-21 19:00:00 12.3 3 Sur 10 Nordeste 0 -- -- 83
2019-10-21 18:00:00 13 0 Calma 9 Noroeste 0 -- -- 79
2019-10-21 17:00:00 13.3 0 Calma 9 Norte 0.8 -- -- 79
2019-10-21 16:00:00 14.1 6 Norte 15 Norte 0 -- -- 63
2019-10-21 15:00:00 15.4 2 Sur 10 Sudeste 0 -- -- 58
2019-10-21 14:00:00 14.9 5 Sudeste 9 Sudeste 0 -- -- 64
2019-10-21 13:00:00 12.7 2 Este 8 Sudeste 0 -- -- 75
2019-10-21 12:00:00 8.9 0 Calma 8 Oeste 0 -- -- 95
2019-10-21 11:00:00 7.5 0 Calma 5 Sudeste 0 -- -- 97
2019-10-21 10:00:00 6.8 2 Norte 6 Norte 0 -- -- 97
2019-10-21 09:00:00 6.6 0 Calma 3 Noroeste 0 -- -- 97
2019-10-21 08:00:00 5.8 0 Calma 3 Sudeste 0 -- -- 96
2019-10-21 07:00:00 6.5 0 Calma 7 Nordeste 0 -- -- 96
2019-10-21 06:00:00 7.2 2 Nordeste 7 Norte 0 -- -- 96
2019-10-21 05:00:00 7.2 0 Calma 4 Norte 0 -- -- 96
2019-10-21 04:00:00 8.1 0 Calma 4 Norte 0 -- -- 95
2019-10-21 03:00:00 8.5 0 Calma 3 Noroeste 0 -- -- 95
2019-10-21 02:00:00 8.5 0 Calma 4 Noroeste 0 -- -- 95
2019-10-21 01:00:00 8.6 0 Calma 2 Sudoeste 0 -- -- 93
2019-10-21 00:00:00 9.6 0 Calma 5 Noroeste 0 -- -- 88
2019-10-20 23:00:00 10 2 Oeste 14 Norte 0 -- -- 84
2019-10-20 22:00:00 10.1 4 Noroeste 13 Noroeste 0 -- -- 84
2019-10-20 21:00:00 10.1 5 Noroeste 14 Noroeste 0 -- -- 85
2019-10-20 20:00:00 10.3 6 Noroeste 14 Noroeste 0.2 -- -- 85
2019-10-20 19:00:00 10.7 6 Noroeste 13 Noroeste 0 -- -- 84
2019-10-20 18:00:00 11 6 Oeste 19 Oeste 0 -- -- 84
2019-10-20 17:00:00 11.5 12 Noroeste 21 Oeste 0.2 -- -- 82
2019-10-20 16:00:00 12 10 Oeste 21 Oeste 0 -- -- 80
2019-10-20 15:00:00 12.9 8 Oeste 22 Oeste 0 -- -- 80
2019-10-20 14:00:00 13.4 10 Oeste 20 Sudoeste 0 -- -- 80
2019-10-20 13:00:00 12.3 7 Noroeste 27 Oeste 0.2 -- -- 87
2019-10-20 12:00:00 14.8 11 Oeste 25 Sur 0 -- -- 74
2019-10-20 11:00:00 13.9 6 Sudoeste 18 Sur 0 -- -- 77
2019-10-20 10:00:00 11.8 0 Calma 4 Sudeste 0.2 -- -- 94
2019-10-20 09:00:00 11.7 0 Calma 7 Sudeste 0 -- -- 94
2019-10-20 08:00:00 11.9 3 Sudoeste 12 Sudoeste 0.4 -- -- 94
2019-10-20 07:00:00 11.9 2 Noroeste 10 Este 1 -- -- 93
2019-10-20 06:00:00 12.5 3 Sur 37 Este 4 -- -- 88
2019-10-20 05:00:00 15.2 12 Este 36 Este 0 -- -- 82
2019-10-20 04:00:00 14.2 4 Este 23 Sudeste 0 -- -- 87
2019-10-20 03:00:00 14.3 18 Sudeste 37 Sudeste 0.8 -- -- 85
2019-10-20 02:00:00 15.2 12 Sudeste 23 Sudeste 1.4 -- -- 84
2019-10-20 01:00:00 16.5 15 Sudeste 40 Sudeste 0 -- -- 74
2019-10-20 00:00:00 17.1 3 Oeste 27 Sudeste 0 -- -- 68
2019-10-19 23:00:00 17.7 9 Sur 38 Sudeste 0 -- -- 65
2019-10-19 22:00:00 17.4 10 Sudeste 27 Sur 0.2 -- -- 66
2019-10-19 21:00:00 18.4 12 Sudeste 35 Este 0 -- -- 53
2019-10-19 20:00:00 18.5 15 Sudeste 37 Sudeste 0 -- -- 52
2019-10-19 19:00:00 18.6 22 Sudeste 41 Sudeste 0 -- -- 52
2019-10-19 18:00:00 19 19 Sudeste 46 Sudeste 0 -- -- 48
2019-10-19 17:00:00 19.5 22 Sudeste 47 Sudeste 0 -- -- 51
2019-10-19 16:00:00 20.3 18 Sudeste 37 Sudeste 0 -- -- 51
2019-10-19 15:00:00 19.3 18 Sur 40 Sudeste 0 -- -- 54
2019-10-19 14:00:00 19.2 17 Sudeste 36 Sur 0 -- -- 60
2019-10-19 13:00:00 18.4 15 Sudeste 25 Sudeste 0 -- -- 63
2019-10-19 12:00:00 17.3 7 Sur 23 Sudeste 0 -- -- 71
2019-10-19 11:00:00 16 6 Sudeste 14 Sudeste 0 -- -- 72
2019-10-19 10:00:00 12.4 0 Calma 5 Sur 0 -- -- 89
2019-10-19 09:00:00 11.8 0 Calma 6 Norte 0 -- -- 91
2019-10-19 08:00:00 12.5 3 Noroeste 11 Este 0.2 -- -- 87
2019-10-19 07:00:00 13 2 Sudeste 5 Oeste 0 -- -- 82
2019-10-19 06:00:00 13.2 2 Este 6 Noroeste 0 -- -- 81
2019-10-19 05:00:00 13.6 2 Noroeste 4 Oeste 0 -- -- 79
2019-10-19 04:00:00 14.9 2 Noroeste 8 Sudoeste 0 -- -- 72
2019-10-19 03:00:00 16.6 2 Oeste 14 Oeste 0 -- -- 63
2019-10-19 02:00:00 17.5 4 Sur 27 Sudeste 0 -- -- 73
2019-10-19 01:00:00 18 8 Sur 25 Sudeste 0 -- -- 74
2019-10-19 00:00:00 16.8 3 Oeste 25 Este 0 -- -- 81
2019-10-18 23:00:00 17.4 9 Sudeste 19 Sudeste 0 -- -- 78
2019-10-18 22:00:00 16.1 4 Sudeste 16 Sudeste 0 -- -- 85
2019-10-18 21:00:00 15.4 2 Noroeste 6 Norte 0 -- -- 87
2019-10-18 20:00:00 17 2 Sur 19 Sudeste 0 -- -- 80
2019-10-18 19:00:00 18.5 5 Sudeste 19 Sudeste 0 -- -- 71
2019-10-18 18:00:00 18.1 8 Sudeste 15 Sudeste 0 -- -- 70
2019-10-18 17:00:00 18.2 3 Noroeste 9 Norte 0 -- -- 75
2019-10-18 16:00:00 18.7 5 Noroeste 11 Norte 0 -- -- 72
2019-10-18 15:00:00 18.9 3 Oeste 8 Noroeste 0 -- -- 72
2019-10-18 14:00:00 17.6 3 Nordeste 11 Nordeste 0 -- -- 76
2019-10-18 13:00:00 16.7 5 Norte 13 Norte 0 -- -- 79
2019-10-18 12:00:00 14.9 4 Norte 9 Norte 0 -- -- 85
2019-10-18 11:00:00 14.7 5 Norte 10 Noroeste 0 -- -- 88
2019-10-18 10:00:00 14.7 0 Calma 4 Oeste 0 -- -- 91
2019-10-18 09:00:00 14.4 0 Calma 8 Norte 0 -- -- 91
2019-10-18 08:00:00 14.4 3 Nordeste 8 Nordeste 0 -- -- 90
2019-10-18 07:00:00 14.8 2 Nordeste 22 Este 0 -- -- 87
2019-10-18 06:00:00 14.6 9 Este 17 Sudeste 0 -- -- 89
2019-10-18 05:00:00 14.9 5 Este 17 Este 0 -- -- 85
2019-10-18 04:00:00 15.2 4 Este 19 Este 1.8 -- -- 83
2019-10-18 03:00:00 16.6 8 Este 17 Este 0 -- -- 70
2019-10-18 02:00:00 15 2 Norte 6 Norte 0 -- -- 79
2019-10-18 01:00:00 14.8 3 Nordeste 14 Sudeste 0 -- -- 76
2019-10-18 00:00:00 13.9 3 Norte 13 Norte 0 -- -- 80
2019-10-17 23:00:00 13.4 5 Norte 13 Norte 0 -- -- 82
2019-10-17 22:00:00 14.3 4 Norte 12 Norte 0 -- -- 77
2019-10-17 21:00:00 14.3 2 Norte 6 Nordeste 0 -- -- 77
2019-10-17 20:00:00 16.2 3 Norte 11 Sur 0 -- -- 70
2019-10-17 19:00:00 19.4 6 Sudeste 18 Sur 0 -- -- 56
2019-10-17 18:00:00 21 10 Sur 24 Sudeste 0 -- -- 53
2019-10-17 17:00:00 19.8 8 Sur 23 Sudeste 0 -- -- 56
2019-10-17 16:00:00 20.5 15 Sudeste 30 Sudeste 0 -- -- 53
2019-10-17 15:00:00 20.4 14 Sudeste 25 Sudeste 0 -- -- 52
2019-10-17 14:00:00 17.4 12 Sur 23 Sudeste 0 -- -- 58
2019-10-17 13:00:00 16.4 13 Sudeste 28 Sudeste 0 -- -- 61
2019-10-17 12:00:00 14.7 4 Norte 10 Norte 0 -- -- 68
2019-10-17 11:00:00 13.7 4 Noroeste 9 Nordeste 0 -- -- 81
2019-10-17 10:00:00 12.4 3 Norte 6 Sudoeste 0 -- -- 89
2019-10-17 09:00:00 11.7 2 Nordeste 7 Sudeste 0 -- -- 92
2019-10-17 08:00:00 12.1 0 Calma 8 Este 1 -- -- 88
2019-10-17 07:00:00 14.1 0 Calma 12 Este 0 -- -- 75
2019-10-17 06:00:00 13.7 0 Calma 5 Este 0 -- -- 71
2019-10-17 05:00:00 14.4 0 Calma 15 Sudeste 0 -- -- 68
2019-10-17 04:00:00 15.2 8 Sudeste 13 Sudeste 0 -- -- 57
2019-10-17 03:00:00 14.5 4 Este 13 Sudeste 0 -- -- 60
2019-10-17 02:00:00 13.8 2 Sudoeste 9 Sudeste 0 -- -- 69
2019-10-17 01:00:00 13.6 0 Calma 8 Sur 0 -- -- 75
2019-10-17 00:00:00 13.6 2 Norte 6 Norte 0 -- -- 72
2019-10-16 23:00:00 12.8 0 Calma 4 Oeste 0 -- -- 75
2019-10-16 22:00:00 12.4 0 Calma 4 Sudoeste 0 -- -- 77
2019-10-16 21:00:00 13.4 0 Calma 4 Este 0 -- -- 71
2019-10-16 20:00:00 16 2 Este 10 Este 0 -- -- 59
2019-10-16 19:00:00 18.7 3 Este 10 Sudeste 0 -- -- 47
2019-10-16 18:00:00 19.1 9 Sur 20 Sudeste 0 -- -- 46
2019-10-16 17:00:00 19.6 14 Sudeste 28 Este 0 -- -- 44
2019-10-16 16:00:00 19.5 13 Sur 28 Sudeste 0 -- -- 46
2019-10-16 15:00:00 18.5 10 Sur 35 Sudeste 0 -- -- 51
2019-10-16 14:00:00 16.2 7 Sudeste 25 Este 0 -- -- 58
2019-10-16 13:00:00 15.5 10 Este 26 Sudeste 0 -- -- 58
2019-10-16 12:00:00 14.9 10 Sudeste 20 Sur 0 -- -- 58
2019-10-16 11:00:00 13.6 5 Sur 21 Este 0 -- -- 63
2019-10-16 10:00:00 12.5 11 Sudeste 22 Este 0 -- -- 65
2019-10-16 09:00:00 11.8 12 Sudeste 24 Sudeste 0 -- -- 65
2019-10-16 08:00:00 11.1 8 Sudeste 18 Sudeste 0 -- -- 69
2019-10-16 07:00:00 12.3 10 Sudeste 22 Este 0 -- -- 61
2019-10-16 06:00:00 12 11 Sudeste 25 Este 0 -- -- 63
2019-10-16 05:00:00 11.9 10 Sudeste 24 Sudeste 0 -- -- 64
2019-10-16 04:00:00 11.4 3 Sur 10 Sudeste 0 -- -- 69
2019-10-16 03:00:00 11.9 9 Este 19 Este 0 -- -- 64
2019-10-16 02:00:00 10.9 4 Sur 13 Este 0 -- -- 72
2019-10-16 01:00:00 10.3 3 Sur 12 Sudeste 0 -- -- 75
2019-10-16 00:00:00 10.6 2 Sur 11 Oeste 0 -- -- 77
2019-10-15 23:00:00 9.8 4 Norte 9 Norte 0 -- -- 80
2019-10-15 22:00:00 9.5 2 Noroeste 5 Sur 0 -- -- 82
2019-10-15 21:00:00 10.8 0 Calma 6 Oeste 0 -- -- 79
2019-10-15 20:00:00 12 2 Sur 6 Norte 0 -- -- 75
2019-10-15 19:00:00 15.5 0 Calma 8 Oeste 0 -- -- 62
2019-10-15 18:00:00 16.7 4 Sudoeste 18 Oeste 0 -- -- 49
2019-10-15 17:00:00 17.1 8 Oeste 21 Sudoeste 0 -- -- 48
2019-10-15 16:00:00 16.9 6 Sudoeste 19 Oeste 0 -- -- 48
2019-10-15 15:00:00 16.6 5 Sudoeste 22 Oeste 0 -- -- 48
2019-10-15 14:00:00 14.9 7 Noroeste 16 Oeste 0 -- -- 57
2019-10-15 13:00:00 14.3 9 Oeste 16 Oeste 0.2 -- -- 62
2019-10-15 12:00:00 12.3 9 Noroeste 17 Oeste 0 -- -- 72
2019-10-15 11:00:00 10.6 8 Noroeste 16 Noroeste 0 -- -- 78
2019-10-15 10:00:00 8.2 0 Calma 4 Norte 0 -- -- 94
2019-10-15 09:00:00 6.6 0 Calma 4 Nordeste 0 -- -- 97
2019-10-15 08:00:00 6.2 0 Calma 2 Nordeste 0 -- -- 96
2019-10-15 07:00:00 6.8 0 Calma 3 Noroeste 0 -- -- 95
2019-10-15 06:00:00 7.5 0 Calma 4 Norte 0 -- -- 93
2019-10-15 05:00:00 9 0 Calma 15 Oeste 0 -- -- 89
2019-10-15 04:00:00 9.7 4 Noroeste 12 Noroeste 0 -- -- 93
2019-10-15 03:00:00 9.9 0 Calma 3 Noroeste 0 -- -- 93
2019-10-15 02:00:00 9.8 3 Norte 8 Noroeste 0 -- -- 92
2019-10-15 01:00:00 10.2 3 Noroeste 17 Sur 0 -- -- 89
2019-10-15 00:00:00 11.3 3 Sudoeste 12 Este 1 -- -- 92
2019-10-14 23:00:00 11.7 0 Calma 6 Noroeste 1 -- -- 91
2019-10-14 22:00:00 12.4 2 Sur 34 Noroeste 0.2 -- -- 84
2019-10-14 21:00:00 13.8 12 Noroeste 31 Oeste 0 -- -- 72
2019-10-14 20:00:00 14.2 6 Noroeste 36 Noroeste 1 -- -- 70
2019-10-14 19:00:00 17.3 3 Norte 11 Oeste 0 -- -- 78
2019-10-14 18:00:00 18.4 3 Noroeste 10 Sudeste 0 -- -- 83
2019-10-14 17:00:00 19.3 5 Sudeste 11 Sudeste 0 -- -- 75
2019-10-14 16:00:00 18.4 3 Norte 32 Sudeste 2.6 -- -- 78
2019-10-14 15:00:00 20.2 14 Sudeste 49 Este 1 -- -- 71
2019-10-14 14:00:00 22.2 18 Sudeste 49 Este 0 -- -- 57
2019-10-14 13:00:00 21.9 17 Sudeste 49 Este 0 -- -- 59
2019-10-14 12:00:00 21.7 14 Sudeste 43 Este 0 -- -- 59
2019-10-14 11:00:00 20.6 12 Sudeste 47 Sudeste 0 -- -- 64
2019-10-14 10:00:00 20.8 21 Sur 57 Sudeste 0 -- -- 62
2019-10-14 09:00:00 20 17 Sudeste 55 Sudeste 0 -- -- 65
2019-10-14 08:00:00 19.2 12 Sur 31 Sudeste 0 -- -- 71
2019-10-14 07:00:00 18.9 5 Nordeste 21 Sudeste 0 -- -- 72
2019-10-14 06:00:00 19.3 10 Sudeste 32 Sur 0 -- -- 70
2019-10-14 05:00:00 19.8 15 Sudeste 31 Sudeste 0 -- -- 67
2019-10-14 04:00:00 19.6 4 Sudeste 30 Sudeste 0 -- -- 67
2019-10-14 03:00:00 20.5 12 Sudeste 26 Este 0 -- -- 64
2019-10-14 02:00:00 20.8 10 Sur 33 Este 0 -- -- 64
2019-10-14 01:00:00 21.5 18 Sudeste 49 Este 0 -- -- 65
2019-10-14 00:00:00 22.2 15 Sudeste 44 Este 0 -- -- 63
2019-10-13 23:00:00 22.5 8 Sur 30 Sudeste 0 -- -- 61
2019-10-13 22:00:00 23.2 6 Sudeste 35 Sudeste 0 -- -- 57
2019-10-13 21:00:00 23.8 10 Este 35 Este 0 -- -- 55
2019-10-13 20:00:00 24.2 4 Sur 29 Sudeste 0 -- -- 52
2019-10-13 19:00:00 25.5 10 Sudeste 26 Sudeste 0 -- -- 48
2019-10-13 18:00:00 26.8 10 Sudeste 32 Sudeste 0 -- -- 45
2019-10-13 17:00:00 26.8 16 Sudeste 39 Este 0 -- -- 46
2019-10-13 16:00:00 26.7 15 Sudeste 35 Este 0 -- -- 47
2019-10-13 15:00:00 25.1 8 Sudeste 37 Este 0 -- -- 51
2019-10-13 14:00:00 25 12 Sudeste 36 Sudeste 0 -- -- 55
2019-10-13 13:00:00 23.1 12 Sudeste 41 Este 0 -- -- 61
2019-10-13 12:00:00 21.3 14 Sur 29 Sur 0 -- -- 67
2019-10-13 11:00:00 20.6 17 Sur 35 Sur 0 -- -- 71
2019-10-13 10:00:00 19.6 17 Sur 41 Sur 0 -- -- 74
2019-10-13 09:00:00 19.1 18 Sur 46 Sur 0 -- -- 75
2019-10-13 08:00:00 18.7 14 Sudeste 36 Sudeste 0 -- -- 77
2019-10-13 07:00:00 19.2 13 Sur 40 Sur 0 -- -- 73
2019-10-13 06:00:00 18.9 9 Sur 22 Sudeste 0 -- -- 73
2019-10-13 05:00:00 19.5 10 Sudeste 26 Sudeste 0 -- -- 69
2019-10-13 04:00:00 19.9 11 Sudeste 44 Este 0 -- -- 68
2019-10-13 03:00:00 20.4 19 Sudeste 42 Sudeste 0 -- -- 69
2019-10-13 02:00:00 20.9 18 Sur 43 Sudeste 0 -- -- 66
2019-10-13 01:00:00 21.6 19 Sudeste 39 Sudeste 0 -- -- 64
2019-10-13 00:00:00 22.1 13 Sudeste 40 Sudeste 0 -- -- 63
2019-10-12 23:00:00 22.1 15 Sudeste 31 Sudeste 0 -- -- 62
2019-10-12 22:00:00 19.7 0 Calma 25 Sudeste 0 -- -- 74
2019-10-12 21:00:00 22.7 16 Sudeste 32 Sudeste 0 -- -- 62
2019-10-12 20:00:00 21.5 14 Sudeste 37 Sudeste 0.4 -- -- 67
2019-10-12 19:00:00 25.4 4 Sur 39 Sudeste 0 -- -- 49
2019-10-12 18:00:00 27 13 Sudeste 27 Este 0 -- -- 45
2019-10-12 17:00:00 26.8 13 Sudeste 32 Sudeste 0 -- -- 46
2019-10-12 16:00:00 25.4 15 Sur 30 Sudeste 0 -- -- 52
2019-10-12 15:00:00 24.7 12 Sur 35 Sudeste 0 -- -- 57
2019-10-12 14:00:00 25.1 15 Sur 40 Sudeste 0 -- -- 57
2019-10-12 13:00:00 23.1 16 Sudeste 38 Sudeste 0 -- -- 64
2019-10-12 12:00:00 22 16 Sudeste 29 Sudeste 0 -- -- 67
2019-10-12 11:00:00 21.9 14 Sudeste 33 Sudeste 0 -- -- 67
2019-10-12 10:00:00 21 19 Sudeste 38 Sudeste 0 -- -- 69
2019-10-12 09:00:00 19.9 12 Sudeste 23 Sudeste 0 -- -- 74
2019-10-12 08:00:00 19.7 13 Sudeste 37 Sudeste 0 -- -- 76
2019-10-12 07:00:00 20.1 19 Sudeste 49 Sudeste 0 -- -- 74
2019-10-12 06:00:00 20.6 18 Sudeste 35 Sudoeste 0 -- -- 71
2019-10-12 05:00:00 20.9 13 Sur 29 Sudeste 0 -- -- 71
2019-10-12 04:00:00 20.9 9 Sur 34 Sudeste 0 -- -- 71
2019-10-12 03:00:00 21.1 10 Sudeste 18 Sudeste 0 -- -- 71
2019-10-12 02:00:00 21.9 12 Sudeste 26 Sudeste 0 -- -- 68
2019-10-12 01:00:00 22.5 11 Sudeste 30 Sudeste 0 -- -- 65
2019-10-12 00:00:00 22.9 15 Sudeste 36 Este 0 -- -- 63
2019-10-11 23:00:00 22.5 9 Sudeste 19 Sudeste 0 -- -- 60
2019-10-11 22:00:00 22.7 11 Sudeste 27 Sudeste 0 -- -- 60
2019-10-11 21:00:00 20.5 3 Noroeste 10 Sudeste 0 -- -- 69
2019-10-11 20:00:00 20.5 2 Norte 6 Norte 0 -- -- 68
2019-10-11 19:00:00 24.1 0 Calma 12 Sudeste 0 -- -- 58
2019-10-11 18:00:00 26.5 5 Sur 20 Sudeste 0 -- -- 49
2019-10-11 17:00:00 26.7 8 Sudeste 26 Sudeste 0 -- -- 48
2019-10-11 16:00:00 26.1 11 Sudeste 30 Este 0 -- -- 49
2019-10-11 15:00:00 25 12 Sudeste 26 Este 0 -- -- 51
2019-10-11 14:00:00 23.1 11 Este 26 Sudeste 0 -- -- 55
2019-10-11 13:00:00 22 12 Sudeste 26 Sudeste 0 -- -- 58
2019-10-11 12:00:00 20.3 15 Sudeste 25 Sudeste 0 -- -- 63
2019-10-11 11:00:00 18.7 4 Este 14 Sudeste 0 -- -- 65
2019-10-11 10:00:00 15.4 6 Este 12 Este 0 -- -- 68
2019-10-11 09:00:00 11.2 0 Calma 10 Este 0 -- -- 83
2019-10-11 08:00:00 10.4 0 Calma 10 Este 0 -- -- 84
2019-10-11 07:00:00 11.3 3 Nordeste 12 Nordeste 0 -- -- 78
2019-10-11 06:00:00 11.4 3 Norte 24 Este 0 -- -- 80
2019-10-11 05:00:00 13.1 10 Este 19 Este 0 -- -- 73
2019-10-11 04:00:00 13.5 9 Nordeste 18 Este 0 -- -- 73
2019-10-11 03:00:00 10.4 5 Norte 11 Nordeste 0 -- -- 92
2019-10-11 02:00:00 11.6 5 Norte 18 Nordeste 0 -- -- 83
2019-10-11 01:00:00 10.7 4 Norte 11 Nordeste 0 -- -- 92
2019-10-11 00:00:00 11 3 Nordeste 9 Nordeste 0 -- -- 92
2019-10-10 23:00:00 11.5 2 Norte 7 Norte 0 -- -- 90
2019-10-10 22:00:00 12.8 0 Calma 5 Norte 0 -- -- 85
2019-10-10 21:00:00 15.4 2 Este 19 Nordeste 0 -- -- 76
2019-10-10 20:00:00 17 9 Norte 26 Norte 0 -- -- 70
2019-10-10 19:00:00 18.4 12 Norte 21 Norte 0 -- -- 63
2019-10-10 18:00:00 20.2 8 Norte 22 Noroeste 0 -- -- 56
2019-10-10 17:00:00 21 8 Norte 20 Norte 0 -- -- 52
2019-10-10 16:00:00 21.2 6 Norte 17 Norte 0 -- -- 49
2019-10-10 15:00:00 20.8 6 Norte 14 Norte 0 -- -- 50
2019-10-10 14:00:00 19.9 6 Norte 15 Este 0 -- -- 52
2019-10-10 13:00:00 18.8 5 Noroeste 18 Norte 0 -- -- 58
2019-10-10 12:00:00 15.9 3 Oeste 9 Oeste 0 -- -- 70
2019-10-10 11:00:00 11.9 4 Norte 8 Norte 0 -- -- 85
2019-10-10 10:00:00 8.1 2 Norte 8 Norte 0 -- -- 98
2019-10-10 09:00:00 6.4 0 Calma 6 Norte 0 -- -- 98
2019-10-10 08:00:00 6.3 0 Calma 7 Norte 0 -- -- 97
2019-10-10 07:00:00 6.9 2 Norte 5 Norte 0 -- -- 97
2019-10-10 06:00:00 7.3 2 Norte 9 Norte 0 -- -- 97
2019-10-10 05:00:00 6.8 0 Calma 3 Noroeste 0 -- -- 96
2019-10-10 04:00:00 7.6 0 Calma 3 Nordeste 0 -- -- 95
2019-10-10 03:00:00 8.2 0 Calma 2 Sur 0 -- -- 95
2019-10-10 02:00:00 8.3 0 Calma 4 Norte 0 -- -- 95
2019-10-10 01:00:00 8.7 2 Norte 5 Noroeste 0 -- -- 93
2019-10-10 00:00:00 9.9 0 Calma 4 Norte 0 -- -- 89
2019-10-09 23:00:00 11 2 Noroeste 10 Norte 0 -- -- 86
2019-10-09 22:00:00 13.2 5 Noroeste 14 Noroeste 0 -- -- 79
2019-10-09 21:00:00 13.2 4 Noroeste 16 Oeste 0 -- -- 78
2019-10-09 20:00:00 14.1 5 Norte 20 Norte 0 -- -- 73
2019-10-09 19:00:00 14.8 13 Norte 25 Noroeste 0 -- -- 70
2019-10-09 18:00:00 15.6 8 Noroeste 19 Oeste 0 -- -- 67
2019-10-09 17:00:00 16.3 10 Noroeste 25 Norte 0 -- -- 68
2019-10-09 16:00:00 16.2 10 Noroeste 30 Noroeste 0 -- -- 70
2019-10-09 15:00:00 15.5 10 Noroeste 28 Norte 0 -- -- 74
2019-10-09 14:00:00 17 8 Noroeste 32 Oeste 0 -- -- 67
2019-10-09 13:00:00 15.9 6 Noroeste 34 Oeste 0 -- -- 72
2019-10-09 12:00:00 15.7 11 Noroeste 31 Oeste 0 -- -- 74
2019-10-09 11:00:00 14.7 6 Oeste 31 Oeste 0 -- -- 77
2019-10-09 10:00:00 14.5 10 Oeste 25 Oeste 0 -- -- 83
2019-10-09 09:00:00 14.2 7 Noroeste 16 Oeste 0 -- -- 85
2019-10-09 08:00:00 14.4 9 Noroeste 18 Oeste 0 -- -- 85
2019-10-09 07:00:00 14.7 6 Oeste 14 Sudoeste 0 -- -- 84
2019-10-09 06:00:00 15 4 Oeste 12 Oeste 0 -- -- 84
2019-10-09 05:00:00 15.2 5 Noroeste 10 Noroeste 0 -- -- 84
2019-10-09 04:00:00 15 4 Noroeste 10 Norte 0 -- -- 85
2019-10-09 03:00:00 15.4 3 Noroeste 11 Oeste 0 -- -- 85
2019-10-09 02:00:00 15.7 3 Noroeste 11 Sudoeste 0 -- -- 85
2019-10-09 01:00:00 16.2 6 Oeste 17 Norte 0 -- -- 82
2019-10-09 00:00:00 16.7 6 Noroeste 33 Norte 0 -- -- 81
2019-10-08 23:00:00 17.3 16 Noroeste 32 Noroeste 0 -- -- 83
2019-10-08 22:00:00 18.3 7 Noroeste 26 Norte 0 -- -- 84
2019-10-08 21:00:00 18.9 8 Norte 30 Noroeste 0 -- -- 79
2019-10-08 20:00:00 19.7 10 Norte 40 Norte 0 -- -- 72
2019-10-08 19:00:00 21.6 9 Nordeste 33 Noroeste 0 -- -- 55
2019-10-08 18:00:00 23.1 12 Norte 35 Noroeste 0 -- -- 49
2019-10-08 17:00:00 27.2 8 Norte 19 Norte 0 -- -- 36
2019-10-08 16:00:00 28.5 3 Noroeste 14 Sur 0 -- -- 29
2019-10-08 15:00:00 27.4 4 Sudoeste 15 Este 0 -- -- 30
2019-10-08 14:00:00 25 7 Este 19 Nordeste 0 -- -- 28
2019-10-08 13:00:00 22.7 9 Este 18 Este 0 -- -- 30
2019-10-08 12:00:00 18.7 2 Noroeste 4 Sudeste 0 -- -- 46
2019-10-08 11:00:00 14.1 0 Calma 5 Norte 0 -- -- 66
2019-10-08 10:00:00 9.4 0 Calma 5 Norte 0 -- -- 84
2019-10-08 09:00:00 7 0 Calma 3 Noroeste 0 -- -- 94
2019-10-08 08:00:00 6.9 0 Calma 4 Norte 0 -- -- 93
2019-10-08 07:00:00 7.3 0 Calma 5 Sur 0 -- -- 92
2019-10-08 06:00:00 7.7 0 Calma 8 Norte 0 -- -- 92
2019-10-08 05:00:00 8 0 Calma 5 Norte 0 -- -- 91
2019-10-08 04:00:00 8.6 4 Norte 8 Nordeste 0 -- -- 92
2019-10-08 03:00:00 8.9 2 Norte 4 Norte 0 -- -- 90
2019-10-08 02:00:00 9.6 0 Calma 9 Norte 0 -- -- 89
2019-10-08 01:00:00 10.3 2 Noroeste 6 Norte 0 -- -- 87
2019-10-08 00:00:00 11.7 2 Norte 11 Oeste 0 -- -- 83
2019-10-07 23:00:00 13 2 Sudeste 10 Noroeste 0 -- -- 78
2019-10-07 22:00:00 13.3 3 Noroeste 7 Norte 0 -- -- 76
2019-10-07 21:00:00 15.2 5 Norte 12 Norte 0 -- -- 70
2019-10-07 20:00:00 16.4 3 Oeste 7 Norte 0 -- -- 66
2019-10-07 19:00:00 19.2 5 Noroeste 14 Noroeste 0 -- -- 56
2019-10-07 18:00:00 21 4 Noroeste 19 Oeste 0 -- -- 46
2019-10-07 17:00:00 20.8 9 Noroeste 22 Noroeste 0 -- -- 48
2019-10-07 16:00:00 19.3 10 Noroeste 23 Noroeste 0 -- -- 54
2019-10-07 15:00:00 20.2 9 Oeste 28 Oeste 0 -- -- 53
2019-10-07 14:00:00 19.6 12 Noroeste 29 Oeste 0 -- -- 57
2019-10-07 13:00:00 18.5 8 Noroeste 17 Noroeste 0 -- -- 67
2019-10-07 12:00:00 16.7 3 Noroeste 19 Oeste 0 -- -- 73
2019-10-07 11:00:00 14.1 4 Noroeste 10 Oeste 0 -- -- 80
2019-10-07 10:00:00 11.8 3 Norte 13 Oeste 0 -- -- 89
2019-10-07 09:00:00 11 4 Sudeste 7 Sudeste 0 -- -- 95
2019-10-07 08:00:00 9.8 3 Noroeste 10 Noroeste 0 -- -- 96
2019-10-07 07:00:00 9.9 2 Nordeste 11 Oeste 0 -- -- 96
2019-10-07 06:00:00 9.8 0 Calma 4 Norte 0 -- -- 95
2019-10-07 05:00:00 10.4 2 Norte 7 Norte 0 -- -- 94
2019-10-07 04:00:00 11.4 2 Norte 10 Oeste 0 -- -- 90
2019-10-07 03:00:00 12.5 4 Noroeste 16 Norte 0 -- -- 86
2019-10-07 02:00:00 12.7 4 Noroeste 11 Oeste 0 -- -- 86
2019-10-07 01:00:00 13.4 6 Noroeste 22 Noroeste 0 -- -- 82
2019-10-07 00:00:00 14 10 Noroeste 26 Noroeste 0 -- -- 79
2019-10-06 23:00:00 13.9 5 Noroeste 22 Noroeste 0 -- -- 86
2019-10-06 22:00:00 14.5 7 Noroeste 21 Oeste 0 -- -- 83
2019-10-06 21:00:00 14.6 7 Noroeste 18 Oeste 0.2 -- -- 85
2019-10-06 20:00:00 14.7 6 Noroeste 30 Noroeste 0 -- -- 88
2019-10-06 19:00:00 15 15 Noroeste 29 Norte 0.2 -- -- 84
2019-10-06 18:00:00 15 4 Noroeste 16 Oeste 0.2 -- -- 90
2019-10-06 17:00:00 16.1 8 Noroeste 27 Noroeste 0 -- -- 83
2019-10-06 16:00:00 16.7 21 Norte 37 Noroeste 0 -- -- 77
2019-10-06 15:00:00 17.1 8 Noroeste 24 Noroeste 0 -- -- 84
2019-10-06 14:00:00 16.9 7 Oeste 16 Noroeste 0 -- -- 81
2019-10-06 13:00:00 16.1 4 Oeste 15 Oeste 0 -- -- 82
2019-10-06 12:00:00 16.4 7 Oeste 17 Sudoeste 0 -- -- 79
2019-10-06 11:00:00 16.2 6 Oeste 13 Oeste 0 -- -- 76
2019-10-06 10:00:00 14.6 2 Noroeste 5 Noroeste 0 -- -- 81
2019-10-06 09:00:00 13.9 0 Calma 10 Norte 0 -- -- 83
2019-10-06 08:00:00 13.8 5 Norte 12 Noroeste 0 -- -- 82
2019-10-06 07:00:00 13.2 4 Norte 10 Norte 0 -- -- 85
2019-10-06 06:00:00 13.3 4 Noroeste 15 Norte 0 -- -- 85
2019-10-06 05:00:00 14 8 Norte 17 Norte 0 -- -- 81
2019-10-06 04:00:00 14.6 8 Noroeste 19 Sudoeste 0 -- -- 79
2019-10-06 03:00:00 13.4 5 Oeste 14 Oeste 0 -- -- 85
2019-10-06 02:00:00 13.7 2 Oeste 18 Oeste 0 -- -- 84
2019-10-06 01:00:00 13.9 7 Oeste 14 Oeste 0 -- -- 84
2019-10-06 00:00:00 15.1 4 Noroeste 13 Noroeste 0 -- -- 79
2019-10-05 23:00:00 15.4 6 Noroeste 18 Oeste 0 -- -- 77
2019-10-05 22:00:00 15.4 3 Noroeste 9 Noroeste 0 -- -- 79
2019-10-05 21:00:00 15.9 3 Norte 12 Nordeste 0 -- -- 78
2019-10-05 20:00:00 15.9 8 Norte 17 Norte 0 -- -- 78
2019-10-05 19:00:00 17 12 Norte 27 Norte 0 -- -- 74
2019-10-05 18:00:00 18.2 12 Norte 31 Norte 0 -- -- 71
2019-10-05 17:00:00 19.2 9 Norte 32 Noroeste 0 -- -- 68
2019-10-05 16:00:00 18.9 14 Noroeste 30 Norte 0 -- -- 70
2019-10-05 15:00:00 18.8 15 Noroeste 31 Norte 0 -- -- 69
2019-10-05 14:00:00 19 14 Noroeste 24 Norte 0 -- -- 69
2019-10-05 13:00:00 17.8 6 Norte 20 Noroeste 0 -- -- 71
2019-10-05 12:00:00 17 5 Norte 12 Norte 0 -- -- 73
2019-10-05 11:00:00 16.3 3 Noroeste 12 Oeste 0 -- -- 78
2019-10-05 10:00:00 14.6 4 Oeste 14 Norte 0 -- -- 87
2019-10-05 09:00:00 13.5 0 Calma 9 Noroeste 0 -- -- 89
2019-10-05 08:00:00 14.1 3 Noroeste 13 Oeste 0 -- -- 86
2019-10-05 07:00:00 14.2 5 Noroeste 14 Noroeste 0 -- -- 89
2019-10-05 06:00:00 14 3 Noroeste 9 Oeste 0 -- -- 93
2019-10-05 05:00:00 14.1 4 Noroeste 9 Oeste 0 -- -- 93
2019-10-05 04:00:00 14.1 2 Noroeste 9 Noroeste 0 -- -- 94
2019-10-05 03:00:00 14.3 3 Noroeste 13 Oeste 0 -- -- 93
2019-10-05 02:00:00 14.2 4 Noroeste 9 Oeste 0 -- -- 94
2019-10-05 01:00:00 14.3 3 Noroeste 9 Noroeste 0 -- -- 93
2019-10-05 00:00:00 14.3 3 Noroeste 11 Noroeste 0 -- -- 93
2019-10-04 23:00:00 14.8 7 Oeste 15 Oeste 0 -- -- 88
2019-10-04 22:00:00 15 6 Oeste 15 Noroeste 0 -- -- 85
2019-10-04 21:00:00 15.5 5 Noroeste 24 Noroeste 0 -- -- 84
2019-10-04 20:00:00 15.9 8 Oeste 28 Noroeste 0 -- -- 84
2019-10-04 19:00:00 17.1 11 Noroeste 27 Noroeste 0 -- -- 78
2019-10-04 18:00:00 17.6 10 Norte 31 Noroeste 0 -- -- 75
2019-10-04 17:00:00 19 5 Noroeste 22 Oeste 0 -- -- 75
2019-10-04 16:00:00 18.7 7 Noroeste 14 Noroeste 0 -- -- 77
2019-10-04 15:00:00 18.6 8 Noroeste 20 Noroeste 0 -- -- 79
2019-10-04 14:00:00 18.4 8 Noroeste 21 Oeste 0 -- -- 82
2019-10-04 13:00:00 18.3 9 Noroeste 27 Sudoeste 0 -- -- 82
2019-10-04 12:00:00 18.2 5 Oeste 14 Oeste 0 -- -- 81
2019-10-04 11:00:00 15.8 0 Calma 5 Norte 0 -- -- 83
2019-10-04 10:00:00 14.3 0 Calma 5 Noroeste 0 -- -- 85
2019-10-04 09:00:00 13.4 0 Calma 6 Norte 0 -- -- 87
2019-10-04 08:00:00 13 2 Nordeste 8 Norte 0 -- -- 87
2019-10-04 07:00:00 12.6 0 Calma 5 Norte 0 -- -- 87
2019-10-04 06:00:00 12.4 2 Nordeste 5 Este 0 -- -- 87
2019-10-04 05:00:00 12 3 Norte 6 Nordeste 0 -- -- 87
2019-10-04 04:00:00 11.6 3 Norte 10 Nordeste 0 -- -- 90
2019-10-04 03:00:00 11.3 3 Norte 7 Norte 0 -- -- 91
2019-10-04 02:00:00 11.6 3 Norte 7 Norte 0 -- -- 89
2019-10-04 01:00:00 12.3 3 Norte 7 Norte 0 -- -- 87
2019-10-04 00:00:00 13.2 0 Calma 10 Nordeste 0 -- -- 84
2019-10-03 23:00:00 12.9 4 Nordeste 18 Noroeste 0 -- -- 83
2019-10-03 22:00:00 14.9 8 Norte 18 Norte 0 -- -- 71
2019-10-03 21:00:00 14.8 8 Norte 18 Norte 0 -- -- 77
2019-10-03 20:00:00 16.6 4 Noroeste 15 Sudoeste 0 -- -- 71
2019-10-03 19:00:00 19 7 Noroeste 26 Oeste 0 -- -- 62
2019-10-03 18:00:00 20.3 10 Oeste 25 Oeste 0 -- -- 57
2019-10-03 17:00:00 20.6 12 Oeste 29 Noroeste 0 -- -- 56
2019-10-03 16:00:00 20.7 10 Oeste 34 Oeste 0 -- -- 56
2019-10-03 15:00:00 20.3 13 Noroeste 26 Oeste 0 -- -- 56
2019-10-03 14:00:00 19.5 7 Oeste 18 Noroeste 0 -- -- 63
2019-10-03 13:00:00 18.3 6 Sudoeste 16 Noroeste 0.2 -- -- 66
2019-10-03 12:00:00 15.8 8 Oeste 18 Sudoeste 0 -- -- 77
2019-10-03 11:00:00 13.3 4 Oeste 10 Oeste 0 -- -- 88
2019-10-03 10:00:00 11.6 5 Oeste 11 Oeste 0 -- -- 93
2019-10-03 09:00:00 11.5 3 Noroeste 11 Oeste 0 -- -- 92
2019-10-03 08:00:00 12.2 4 Oeste 14 Oeste 0 -- -- 90
2019-10-03 07:00:00 12.6 6 Noroeste 17 Oeste 0 -- -- 88
2019-10-03 06:00:00 12.9 5 Noroeste 11 Oeste 0 -- -- 88
2019-10-03 05:00:00 13.1 4 Noroeste 13 Noroeste 0 -- -- 88
2019-10-03 04:00:00 13.1 5 Oeste 18 Oeste 0 -- -- 90
2019-10-03 03:00:00 13.1 8 Oeste 17 Noroeste 0 -- -- 90
2019-10-03 02:00:00 13.1 6 Noroeste 16 Oeste 0 -- -- 89
2019-10-03 01:00:00 13.1 6 Noroeste 21 Oeste 0.2 -- -- 90
2019-10-03 00:00:00 13.7 5 Noroeste 28 Oeste 0 -- -- 87
2019-10-02 23:00:00 13.8 8 Noroeste 21 Oeste 0 -- -- 86
2019-10-02 22:00:00 13.6 4 Noroeste 9 Norte 0 -- -- 90
2019-10-02 21:00:00 13.8 4 Noroeste 12 Oeste 0.4 -- -- 91
2019-10-02 20:00:00 14.4 2 Noroeste 11 Norte 0 -- -- 87
2019-10-02 19:00:00 14.7 3 Norte 24 Sudoeste 0.4 -- -- 87
2019-10-02 18:00:00 14.7 5 Noroeste 17 Oeste 0.6 -- -- 91
2019-10-02 17:00:00 15.9 10 Noroeste 23 Oeste 0 -- -- 82
2019-10-02 16:00:00 15.2 9 Noroeste 28 Oeste 0.6 -- -- 87
2019-10-02 15:00:00 15.2 7 Oeste 22 Oeste 0.6 -- -- 90
2019-10-02 14:00:00 14.6 6 Noroeste 24 Oeste 1 -- -- 91
2019-10-02 13:00:00 14.9 8 Noroeste 19 Sudoeste 0 -- -- 89
2019-10-02 12:00:00 13.9 7 Oeste 21 Noroeste 0.6 -- -- 93
2019-10-02 11:00:00 13.9 4 Noroeste 21 Oeste 0.6 -- -- 95
2019-10-02 10:00:00 13.1 5 Noroeste 19 Oeste 1 -- -- 95
2019-10-02 09:00:00 12.8 7 Oeste 20 Oeste 0.8 -- -- 94
2019-10-02 08:00:00 12.9 6 Noroeste 15 Oeste 0.4 -- -- 92
2019-10-02 07:00:00 12.6 4 Oeste 15 Oeste 1.4 -- -- 94
2019-10-02 06:00:00 13 6 Noroeste 15 Noroeste 0.6 -- -- 91
2019-10-02 05:00:00 13.5 3 Norte 23 Norte 0.4 -- -- 86
2019-10-02 04:00:00 15 15 Norte 32 Noroeste 0 -- -- 73
2019-10-02 03:00:00 14.7 5 Noroeste 16 Noroeste 0 -- -- 81
2019-10-02 02:00:00 15.4 5 Noroeste 23 Sudoeste 0 -- -- 80
2019-10-02 01:00:00 15.6 12 Noroeste 30 Norte 0.2 -- -- 84
2019-10-02 00:00:00 15.3 2 Norte 5 Norte 0 -- -- 92
2019-10-01 23:00:00 15.6 3 Norte 13 Nordeste 0 -- -- 89
2019-10-01 22:00:00 16.3 4 Noroeste 17 Oeste 0 -- -- 84
2019-10-01 21:00:00 16.9 9 Noroeste 32 Norte 0 -- -- 78
2019-10-01 20:00:00 17 18 Norte 51 Noroeste 0 -- -- 77
2019-10-01 19:00:00 17.6 26 Norte 39 Norte 0 -- -- 77
2019-10-01 18:00:00 18.5 18 Norte 37 Norte 0 -- -- 74
2019-10-01 17:00:00 20.3 11 Norte 32 Noroeste 0 -- -- 67
2019-10-01 16:00:00 21.8 12 Norte 26 Noroeste 0 -- -- 63
2019-10-01 15:00:00 22.2 9 Norte 34 Norte 0 -- -- 62
2019-10-01 14:00:00 22 15 Norte 32 Noroeste 0 -- -- 62
2019-10-01 13:00:00 21.7 15 Noroeste 37 Norte 0 -- -- 65
2019-10-01 12:00:00 21.8 7 Oeste 16 Oeste 0 -- -- 66
2019-10-01 11:00:00 16.8 0 Calma 0 Calma 0 -- -- 86
2019-10-01 10:00:00 13.1 0 Calma 0 Calma 0 -- -- 97
2019-10-01 09:00:00 11.7 0 Calma 0 Calma 0 -- -- 97
2019-10-01 08:00:00 11.3 0 Calma 0 Calma 0 -- -- 96
2019-10-01 07:00:00 11.4 0 Calma 0 Calma 0 -- -- 96
2019-10-01 06:00:00 11.4 0 Calma 0 Calma 0 -- -- 95
2019-10-01 05:00:00 12 0 Calma 0 Calma 0 -- -- 94
2019-10-01 04:00:00 12.5 0 Calma 0 Calma 0 -- -- 94
2019-10-01 03:00:00 13.3 0 Calma 0 Calma 0 -- -- 93
2019-10-01 02:00:00 13.9 0 Calma 0 Calma 0 -- -- 92
2019-10-01 01:00:00 14.6 0 Calma 2 Sudeste 0 -- -- 90
2019-10-01 00:00:00 15.5 0 Calma 3 Nordeste 0 -- -- 88
2019-09-30 23:00:00 16.9 0 Calma 2 Noroeste 0 -- -- 83
2019-09-30 22:00:00 18.8 0 Calma 5 Sudoeste 0 -- -- 78
2019-09-30 21:00:00 21.6 3 Sudeste 10 Este 0 -- -- 69
2019-09-30 20:00:00 23.6 4 Norte 14 Norte 0 -- -- 61
2019-09-30 19:00:00 27 3 Norte 12 Oeste 0 -- -- 51
2019-09-30 18:00:00 28.5 5 Noroeste 14 Oeste 0 -- -- 43
2019-09-30 17:00:00 28.8 6 Oeste 13 Sudoeste 0 -- -- 44
2019-09-30 16:00:00 28.5 4 Oeste 11 Noroeste 0 -- -- 44
2019-09-30 15:00:00 26.9 7 Oeste 13 Oeste 0 -- -- 48
2019-09-30 14:00:00 26.4 4 Sudeste 12 Sudeste 0 -- -- 46
2019-09-30 13:00:00 24.9 3 Sur 9 Sudeste 0 -- -- 55
2019-09-30 12:00:00 21.9 2 Sudeste 7 Sur 0 -- -- 65
2019-09-30 11:00:00 17.9 0 Calma 4 Sudeste 0 -- -- 74
2019-09-30 10:00:00 14.3 0 Calma 4 Este 0 -- -- 83
2019-09-30 09:00:00 10.8 0 Calma 2 Noroeste 0 -- -- 95
2019-09-30 08:00:00 10.5 0 Calma 2 Noroeste 0 -- -- 93
2019-09-30 07:00:00 11.1 0 Calma 3 Noroeste 0 -- -- 92
2019-09-30 06:00:00 11.7 2 Noroeste 4 Norte 0 -- -- 91
2019-09-30 05:00:00 11.3 0 Calma 4 Oeste 0 -- -- 90
2019-09-30 04:00:00 12.1 0 Calma 4 Sudoeste 0 -- -- 87
2019-09-30 03:00:00 12.3 0 Calma 3 Sur 0 -- -- 84
2019-09-30 02:00:00 13.9 0 Calma 6 Sudoeste 0 -- -- 78
2019-09-30 01:00:00 15 0 Calma 8 Norte 0 -- -- 77
2019-09-30 00:00:00 17.2 2 Noroeste 12 Noroeste 0 -- -- 71
2019-09-29 23:00:00 17.1 3 Norte 8 Sudoeste 0 -- -- 68
2019-09-29 22:00:00 19.5 4 Este 17 Oeste 0 -- -- 61
2019-09-29 21:00:00 20.3 5 Oeste 29 Norte 0 -- -- 49
2019-09-29 20:00:00 21.2 18 Norte 35 Norte 0 -- -- 45
2019-09-29 19:00:00 24.8 13 Noroeste 28 Noroeste 0 -- -- 44
2019-09-29 18:00:00 29.1 7 Noroeste 18 Oeste 0 -- -- 33
2019-09-29 17:00:00 29.3 5 Noroeste 22 Noroeste 0 -- -- 31
2019-09-29 16:00:00 29.4 10 Noroeste 25 Oeste 0 -- -- 29
2019-09-29 15:00:00 28.4 9 Oeste 24 Oeste 0 -- -- 32
2019-09-29 14:00:00 27.4 8 Sudeste 22 Este 0 -- -- 48
2019-09-29 13:00:00 25.6 7 Sudeste 22 Sudeste 0 -- -- 55
2019-09-29 12:00:00 23.3 8 Sudeste 23 Sur 0 -- -- 63
2019-09-29 11:00:00 22.2 13 Sudeste 26 Sudeste 0 -- -- 67
2019-09-29 10:00:00 20.4 6 Sudeste 12 Sudeste 0 -- -- 71
2019-09-29 09:00:00 15.6 0 Calma 8 Sur 0 -- -- 81
2019-09-29 08:00:00 17 0 Calma 14 Este 0 -- -- 78
2019-09-29 07:00:00 16.5 4 Noroeste 14 Este 0 -- -- 82
2019-09-29 06:00:00 18.7 5 Este 12 Sudeste 0 -- -- 76
2019-09-29 05:00:00 16.8 2 Norte 8 Sudeste 0 -- -- 82
2019-09-29 04:00:00 15.4 2 Nordeste 9 Nordeste 0 -- -- 87
2019-09-29 03:00:00 14.6 3 Norte 8 Norte 0 -- -- 82
2019-09-29 02:00:00 14.5 4 Norte 9 Norte 0 -- -- 82
2019-09-29 01:00:00 14.7 5 Norte 12 Noroeste 0 -- -- 83
2019-09-29 00:00:00 15.4 0 Calma 10 Norte 0 -- -- 81
2019-09-28 23:00:00 16.6 4 Norte 11 Norte 0 -- -- 76
2019-09-28 22:00:00 17.7 5 Norte 11 Norte 0 -- -- 72
2019-09-28 21:00:00 18.3 4 Norte 9 Norte 0 -- -- 70
2019-09-28 20:00:00 21.1 2 Norte 9 Sudeste 0 -- -- 60
2019-09-28 19:00:00 26 6 Sur 20 Sudeste 0 -- -- 44
2019-09-28 18:00:00 27.5 6 Sudeste 22 Sur 0 -- -- 39
2019-09-28 17:00:00 27.6 8 Sudeste 21 Sudeste 0 -- -- 38
2019-09-28 16:00:00 26.8 9 Sudeste 22 Sudeste 0 -- -- 42
2019-09-28 15:00:00 25.7 9 Este 21 Nordeste 0 -- -- 47
2019-09-28 14:00:00 24.1 7 Este 19 Este 0 -- -- 51
2019-09-28 13:00:00 22.8 5 Sur 13 Este 0 -- -- 56
2019-09-28 12:00:00 20.7 2 Oeste 6 Sur 0 -- -- 63
2019-09-28 11:00:00 18.8 3 Este 7 Sudeste 0 -- -- 69
2019-09-28 10:00:00 16.7 2 Este 6 Este 0 -- -- 79
2019-09-28 09:00:00 13.6 0 Calma 7 Oeste 0 -- -- 90
2019-09-28 08:00:00 13.6 2 Oeste 5 Oeste 0 -- -- 90
2019-09-28 07:00:00 14 0 Calma 4 Sudoeste 0 -- -- 89
2019-09-28 06:00:00 14.5 0 Calma 10 Oeste 0 -- -- 86
2019-09-28 05:00:00 15.3 4 Oeste 12 Oeste 0 -- -- 82
2019-09-28 04:00:00 15.6 3 Oeste 9 Sudoeste 0 -- -- 80
2019-09-28 03:00:00 15.4 2 Noroeste 10 Noroeste 0 -- -- 83
2019-09-28 02:00:00 15.9 3 Oeste 15 Oeste 0 -- -- 82
2019-09-28 01:00:00 16.5 6 Oeste 15 Sudoeste 0 -- -- 82
2019-09-28 00:00:00 17 4 Oeste 29 Norte 0 -- -- 81
2019-09-27 23:00:00 17.7 14 Norte 24 Noroeste 0 -- -- 77
2019-09-27 22:00:00 18 13 Norte 31 Noroeste 0 -- -- 76
2019-09-27 21:00:00 18.6 14 Noroeste 29 Noroeste 0 -- -- 75
2019-09-27 20:00:00 19.7 13 Noroeste 29 Norte 0 -- -- 73
2019-09-27 19:00:00 21.2 10 Norte 31 Norte 0 -- -- 68
2019-09-27 18:00:00 22.5 13 Norte 28 Norte 0 -- -- 63
2019-09-27 17:00:00 24 12 Norte 25 Nordeste 0 -- -- 57
2019-09-27 16:00:00 25.1 8 Nordeste 21 Norte 0 -- -- 49
2019-09-27 15:00:00 25.3 5 Norte 18 Norte 0 -- -- 45
2019-09-27 14:00:00 23.7 5 Nordeste 16 Nordeste 0 -- -- 50
2019-09-27 13:00:00 23.2 5 Este 10 Noroeste 0 -- -- 53
2019-09-27 12:00:00 20.2 2 Oeste 9 Sur 0 -- -- 60
2019-09-27 11:00:00 17.1 2 Nordeste 6 Este 0 -- -- 76
2019-09-27 10:00:00 14.2 0 Calma 7 Oeste 0 -- -- 91
2019-09-27 09:00:00 12.3 2 Norte 8 Norte 0 -- -- 95
2019-09-27 08:00:00 12.1 3 Norte 6 Norte 0 -- -- 94
2019-09-27 07:00:00 12.6 2 Norte 7 Norte 0 -- -- 92
2019-09-27 06:00:00 14.3 3 Norte 10 Norte 0 -- -- 90
2019-09-27 05:00:00 15 3 Norte 7 Noroeste 0 -- -- 90
2019-09-27 04:00:00 15.1 4 Oeste 10 Oeste 0 -- -- 93
2019-09-27 03:00:00 15.2 2 Oeste 6 Oeste 0 -- -- 93
2019-09-27 02:00:00 14.9 0 Calma 2 Sur 0 -- -- 93
2019-09-27 01:00:00 14.8 0 Calma 4 Sudeste 0 -- -- 93
2019-09-27 00:00:00 15.2 0 Calma 8 Noroeste 0 -- -- 91
2019-09-26 23:00:00 16.4 2 Norte 10 Norte 0 -- -- 89
2019-09-26 22:00:00 17.1 6 Norte 15 Norte 0 -- -- 87
2019-09-26 21:00:00 18.6 6 Norte 17 Noroeste 0 -- -- 81
2019-09-26 20:00:00 20.6 9 Norte 20 Norte 0 -- -- 73
2019-09-26 19:00:00 24.4 8 Norte 18 Noroeste 0 -- -- 58
2019-09-26 18:00:00 26.7 6 Noroeste 12 Noroeste 0 -- -- 48
2019-09-26 17:00:00 28.1 3 Sudoeste 15 Sudoeste 0 -- -- 39
2019-09-26 16:00:00 26.7 4 Noroeste 12 Sudeste 0 -- -- 42
2019-09-26 15:00:00 26.2 4 Sur 17 Este 0 -- -- 44
2019-09-26 14:00:00 24.7 5 Este 18 Sudeste 0 -- -- 49
2019-09-26 13:00:00 22.3 3 Norte 9 Nordeste 0 -- -- 55
2019-09-26 12:00:00 19.6 0 Calma 8 Sudeste 0 -- -- 67
2019-09-26 11:00:00 15.4 2 Este 7 Sur 0 -- -- 82
2019-09-26 10:00:00 12.1 0 Calma 5 Oeste 0 -- -- 97
2019-09-26 09:00:00 10.7 0 Calma 4 Oeste 0 -- -- 97
2019-09-26 08:00:00 9.7 0 Calma 2 Sur 0 -- -- 96
2019-09-26 07:00:00 10.1 0 Calma 5 Norte 0 -- -- 96
2019-09-26 06:00:00 10.1 0 Calma 3 Norte 0 -- -- 95
2019-09-26 05:00:00 10.7 0 Calma 0 Calma 0 -- -- 94
2019-09-26 04:00:00 11.4 0 Calma 2 Oeste 0 -- -- 93
2019-09-26 03:00:00 12.3 0 Calma 0 Calma 0 -- -- 91
2019-09-26 02:00:00 13.6 0 Calma 3 Norte 0 -- -- 89
2019-09-26 01:00:00 14.1 0 Calma 6 Norte 0 -- -- 86
2019-09-26 00:00:00 15.4 3 Norte 8 Noroeste 0 -- -- 82
2019-09-25 23:00:00 16.4 3 Noroeste 17 Noroeste 0 -- -- 75
2019-09-25 22:00:00 16.7 4 Norte 18 Norte 0 -- -- 74
2019-09-25 21:00:00 17.3 4 Norte 15 Norte 0 -- -- 72
2019-09-25 20:00:00 17.8 7 Norte 20 Nordeste 0 -- -- 71
2019-09-25 19:00:00 18.6 5 Norte 24 Nordeste 0 -- -- 67
2019-09-25 18:00:00 18.9 7 Norte 19 Norte 0 -- -- 65
2019-09-25 17:00:00 19.6 9 Norte 19 Noroeste 0 -- -- 61
2019-09-25 16:00:00 20.4 10 Noroeste 21 Noroeste 0 -- -- 56
2019-09-25 15:00:00 21 9 Noroeste 20 Noroeste 0 -- -- 53
2019-09-25 14:00:00 20.5 9 Noroeste 22 Oeste 0 -- -- 56
2019-09-25 13:00:00 19.6 11 Oeste 24 Oeste 0 -- -- 58
2019-09-25 12:00:00 18.2 8 Oeste 21 Oeste 0 -- -- 61
2019-09-25 11:00:00 16.8 6 Oeste 17 Noroeste 0 -- -- 67
2019-09-25 10:00:00 16.4 5 Oeste 17 Oeste 0 -- -- 70
2019-09-25 09:00:00 14.8 6 Noroeste 14 Noroeste 0 -- -- 74
2019-09-25 08:00:00 15 7 Noroeste 16 Norte 0 -- -- 74
2019-09-25 07:00:00 14.3 0 Calma 5 Noroeste 0 -- -- 86
2019-09-25 06:00:00 14.6 2 Oeste 6 Oeste 0 -- -- 84
2019-09-25 05:00:00 14.8 3 Noroeste 16 Oeste 0 -- -- 80
2019-09-25 04:00:00 15.1 6 Noroeste 21 Oeste 0 -- -- 77
2019-09-25 03:00:00 15.1 9 Noroeste 25 Sudoeste 0 -- -- 80
2019-09-25 02:00:00 15.2 3 Noroeste 17 Oeste 0 -- -- 80
2019-09-25 01:00:00 15.5 7 Sudeste 22 Oeste 0 -- -- 80
2019-09-25 00:00:00 15.9 3 Sudeste 24 Noroeste 0 -- -- 78
2019-09-24 23:00:00 16.2 5 Noroeste 19 Noroeste 0 -- -- 77
2019-09-24 22:00:00 16.9 9 Noroeste 35 Noroeste 0 -- -- 74
2019-09-24 21:00:00 17.1 12 Norte 30 Norte 0.2 -- -- 70
2019-09-24 20:00:00 18.1 12 Norte 31 Norte 0 -- -- 71
2019-09-24 19:00:00 19.6 14 Norte 26 Norte 0 -- -- 75
2019-09-24 18:00:00 23.1 5 Norte 22 Norte 0 -- -- 63
2019-09-24 17:00:00 22.3 7 Noroeste 28 Norte 0 -- -- 66
2019-09-24 16:00:00 24.1 7 Oeste 24 Oeste 0 -- -- 54
2019-09-24 15:00:00 25.4 10 Oeste 25 Oeste 0 -- -- 53
2019-09-24 14:00:00 24.8 8 Oeste 20 Oeste 0 -- -- 52
2019-09-24 13:00:00 23.6 6 Sudoeste 16 Oeste 0 -- -- 52
2019-09-24 12:00:00 22.3 5 Sudeste 15 Sudeste 0 -- -- 51
2019-09-24 11:00:00 19.2 10 Este 19 Este 0 -- -- 57
2019-09-24 10:00:00 18.4 4 Nordeste 17 Este 0 -- -- 60
2019-09-24 09:00:00 16.3 2 Este 10 Norte 0 -- -- 70
2019-09-24 08:00:00 16.3 3 Nordeste 10 Este 0 -- -- 66
2019-09-24 07:00:00 14.3 0 Calma 6 Este 0 -- -- 77
2019-09-24 06:00:00 14.2 2 Norte 10 Nordeste 0 -- -- 77
2019-09-24 05:00:00 14.2 2 Noroeste 13 Sudeste 0 -- -- 79
2019-09-24 04:00:00 16.3 8 Sur 18 Sudeste 0 -- -- 69
2019-09-24 03:00:00 16.2 4 Sudeste 10 Sudeste 0 -- -- 69
2019-09-24 02:00:00 15.1 0 Calma 6 Noroeste 0 -- -- 83
2019-09-24 01:00:00 16 2 Noroeste 8 Norte 0 -- -- 81
2019-09-24 00:00:00 16.3 3 Noroeste 8 Norte 0 -- -- 79
2019-09-23 23:00:00 16.2 0 Calma 6 Norte 0 -- -- 79
2019-09-23 22:00:00 17.4 3 Norte 9 Norte 0 -- -- 73
2019-09-23 21:00:00 18.2 3 Noroeste 6 Norte 0 -- -- 70
2019-09-23 20:00:00 20.6 0 Calma 16 Sudeste 0 -- -- 63
2019-09-23 19:00:00 22.2 7 Sur 20 Sudeste 0 -- -- 50
2019-09-23 18:00:00 22.6 11 Sudeste 26 Sur 0 -- -- 45
2019-09-23 17:00:00 23.2 13 Sudeste 21 Sudeste 0 -- -- 45
2019-09-23 16:00:00 22.3 3 Sudoeste 15 Sudeste 0 -- -- 52
2019-09-23 15:00:00 22.2 3 Sudoeste 15 Sudeste 0 -- -- 54
2019-09-23 14:00:00 20.1 10 Sudeste 15 Este 0 -- -- 62
2019-09-23 13:00:00 18 5 Este 13 Este 0 -- -- 70
2019-09-23 12:00:00 18.3 6 Sudeste 14 Sudeste 0 -- -- 68
2019-09-23 11:00:00 16.1 3 Sudoeste 5 Sur 0 -- -- 83
2019-09-23 10:00:00 12.3 2 Sur 4 Sur 0 -- -- 98
2019-09-23 09:00:00 10.5 0 Calma 4 Oeste 0 -- -- 97
2019-09-23 08:00:00 9.9 0 Calma 4 Norte 0 -- -- 97
2019-09-23 07:00:00 10 2 Nordeste 5 Nordeste 0 -- -- 97
2019-09-23 06:00:00 10.2 0 Calma 3 Oeste 0 -- -- 96
2019-09-23 05:00:00 10 0 Calma 3 Sudoeste 0 -- -- 96
2019-09-23 04:00:00 10.7 0 Calma 5 Noroeste 0 -- -- 95
2019-09-23 03:00:00 11.3 0 Calma 3 Sur 0 -- -- 94
2019-09-23 02:00:00 12.3 0 Calma 9 Oeste 0 -- -- 93
2019-09-23 01:00:00 13.2 3 Oeste 6 Oeste 0 -- -- 92
2019-09-23 00:00:00 14.1 2 Oeste 13 Noroeste 0 -- -- 86
2019-09-22 23:00:00 15.7 4 Norte 13 Oeste 0 -- -- 80
2019-09-22 22:00:00 16.2 5 Noroeste 26 Noroeste 0 -- -- 78
2019-09-22 21:00:00 16.6 12 Noroeste 23 Norte 0 -- -- 77
2019-09-22 20:00:00 17.7 11 Noroeste 22 Noroeste 0 -- -- 71
2019-09-22 19:00:00 19.7 12 Noroeste 23 Norte 0 -- -- 67
2019-09-22 18:00:00 22.5 4 Oeste 14 Sudoeste 0 -- -- 48
2019-09-22 17:00:00 22.2 7 Oeste 20 Oeste 0 -- -- 50
2019-09-22 16:00:00 21.2 8 Oeste 21 Sudoeste 0 -- -- 53
2019-09-22 15:00:00 21 7 Sudoeste 26 Sudoeste 0 -- -- 55
2019-09-22 14:00:00 20.7 9 Noroeste 21 Oeste 0 -- -- 59
2019-09-22 13:00:00 19.4 8 Oeste 19 Oeste 0 -- -- 66
2019-09-22 12:00:00 18 7 Sudoeste 22 Oeste 0 -- -- 72
2019-09-22 11:00:00 17.4 5 Noroeste 15 Sudeste 0 -- -- 80
2019-09-22 10:00:00 16.9 4 Sudoeste 12 Sudoeste 0.2 -- -- 90
2019-09-22 09:00:00 16.5 4 Norte 17 Noroeste 2 -- -- 92
2019-09-22 08:00:00 17.6 8 Oeste 26 Oeste 1.4 -- -- 87
2019-09-22 07:00:00 19.2 11 Sudeste 34 Este 0.2 -- -- 84
2019-09-22 06:00:00 19.7 15 Sudeste 31 Sudeste 1 -- -- 82
2019-09-22 05:00:00 21 20 Sudeste 41 Sudeste 0 -- -- 71
2019-09-22 04:00:00 21.2 15 Sudeste 30 Sudeste 0 -- -- 69
2019-09-22 03:00:00 21.5 10 Sudeste 26 Sudeste 0 -- -- 66
2019-09-22 02:00:00 21.6 12 Sudeste 34 Sudeste 0 -- -- 65
2019-09-22 01:00:00 21.7 9 Sudeste 22 Sudeste 0 -- -- 63
2019-09-22 00:00:00 21.7 7 Sur 34 Sudeste 0 -- -- 62